DW8219 Hasbrouck Heights NJ US current weather conditions

sailwx.info

Wind from 287 at 0 knots gusting 7

Air temperature 17.2° C
Dewpoint 10.1° C

Last reported at 2019-Oct-23 14:52 UTC.
Time now 2019-Oct-23 15:22 UTC

Location: N 40°51' W 074°05'.
View on Google Maps.

See reports from other nearby stations

  
Tides and Currents Weather Stations Pressure Air Temp Water Temp Dewpoint Dewpoint Depression Visibility Wind Speed Wind Dir Waves Ship Positions
date/time (UTC)wind fromknots sea level pressurealtimeterstation pressurevisibilityair tempwater tempwave heightnotes
2019-Oct-23 15:02 245 1 gusting 6 17.8
2019-Oct-23 14:52 287 0 gusting 7 17.2
2019-Oct-23 14:47 318 4 gusting 10 16.7
2019-Oct-23 14:42 316 1 gusting 6 16.7
2019-Oct-23 14:37 301 2 gusting 7 16.7
2019-Oct-23 14:32 263 1 gusting 6 16.7
2019-Oct-23 14:27 319 6 gusting 10 16.1
2019-Oct-23 14:22 305 1 gusting 7 16.1
2019-Oct-23 14:17 313 4 gusting 10 16.1
2019-Oct-23 14:12 272 4 gusting 13 16.1
2019-Oct-23 14:07 265 1 gusting 7 15.6
2019-Oct-23 14:02 278 2 gusting 7 15.6
2019-Oct-23 13:57 257 2 gusting 8 15.0
2019-Oct-23 13:52 302 6 gusting 13 15.0
2019-Oct-23 13:47 298 2 gusting 10 15.0
2019-Oct-23 13:42 255 1 gusting 7 15.0
2019-Oct-23 13:37 274 1 gusting 10 14.4
2019-Oct-23 13:32 316 1 gusting 6 14.4
2019-Oct-23 13:27 294 2 gusting 7 14.4
2019-Oct-23 13:22 257 1 gusting 6 14.4
2019-Oct-23 13:17 302 1 gusting 6 14.4
2019-Oct-23 13:12 315 1 gusting 7 13.9
2019-Oct-23 13:07 258 0 gusting 5 13.9
2019-Oct-23 13:02 278 2 gusting 7 13.3
2019-Oct-23 12:57 299 1 gusting 6 13.3
2019-Oct-23 12:52 305 0 gusting 5 13.3
2019-Oct-23 12:47 299 1 gusting 6 12.8
2019-Oct-23 12:42 287 1 gusting 6 12.8
2019-Oct-23 12:37 273 1 gusting 4 12.8
2019-Oct-23 12:32 294 1 gusting 6 12.8
2019-Oct-23 12:27 308 1 gusting 6 12.8
2019-Oct-23 12:22 278 1 gusting 6 12.8
2019-Oct-23 12:17 269 2 gusting 6 12.8
2019-Oct-23 12:12 296 1 gusting 5 12.8
2019-Oct-23 12:07 301 2 gusting 8 12.2
2019-Oct-23 12:02 308 1 gusting 6 12.2
2019-Oct-23 11:57 273 1 gusting 8 12.2
2019-Oct-23 11:52 297 1 gusting 6 12.2
2019-Oct-23 11:47 295 2 gusting 10 12.2
2019-Oct-23 11:42 302 2 gusting 7 12.2
2019-Oct-23 11:37 288 1 gusting 8 12.2
2019-Oct-23 11:32 269 0 gusting 4 12.2
2019-Oct-23 11:27 313 0 gusting 10 11.7
2019-Oct-23 11:22 324 1 gusting 6 12.2
2019-Oct-23 11:17 301 2 gusting 8 12.2
2019-Oct-23 11:12 306 0 gusting 7 12.2
2019-Oct-23 11:07 283 3 gusting 8 12.2
2019-Oct-23 11:02 268 2 gusting 10 12.2
2019-Oct-23 10:57 282 2 gusting 7 12.2
2019-Oct-23 10:52 285 3 gusting 13 12.2
2019-Oct-23 10:47 309 2 gusting 10 12.2
2019-Oct-23 10:42 296 2 gusting 10 12.2
2019-Oct-23 10:37 313 1 gusting 6 12.2
2019-Oct-23 10:32 301 1 gusting 4 12.2
2019-Oct-23 10:27 305 1 gusting 4 12.2
2019-Oct-23 10:22 291 12.2
2019-Oct-23 10:17 284 1 gusting 7 12.2
2019-Oct-23 10:12 270 0 gusting 6 12.2
2019-Oct-23 10:07 304 1 gusting 7 12.8
2019-Oct-23 10:02 305 2 gusting 8 12.8
2019-Oct-23 09:57 303 1 gusting 7 12.8
2019-Oct-23 09:52 306 0 gusting 7 12.8
2019-Oct-23 09:47 287 12.8
2019-Oct-23 09:42 323 0 gusting 4 12.8
2019-Oct-23 09:37 315 1 gusting 5 12.8
2019-Oct-23 09:32 315 0 gusting 4 12.8
2019-Oct-23 09:27 304 12.8
2019-Oct-23 09:22 303 12.8
2019-Oct-23 09:17 304 12.8
2019-Oct-23 09:12 299 0 gusting 2 12.8
2019-Oct-23 09:07 309 1 gusting 6 12.8
2019-Oct-23 09:02 307 1 gusting 4 12.8
2019-Oct-23 08:57 312 0 gusting 2 12.8
2019-Oct-23 08:52 310 0 gusting 4 12.8
2019-Oct-23 08:47 314 0 gusting 2 12.8
2019-Oct-23 08:42 294 0 gusting 2 12.8
2019-Oct-23 08:37 304 13.3
2019-Oct-23 08:32 305 13.3
2019-Oct-23 08:27 305 13.3
2019-Oct-23 08:22 305 13.3
2019-Oct-23 08:17 305 13.3
2019-Oct-23 08:12 305 13.3
2019-Oct-23 08:07 305 13.9
2019-Oct-23 08:02 305 13.9
2019-Oct-23 07:57 305 13.9
2019-Oct-23 07:52 305 13.9
2019-Oct-23 07:47 305 13.9
2019-Oct-23 07:42 305 13.9
2019-Oct-23 07:37 306 0 gusting 2 13.9
2019-Oct-23 07:32 310 0 gusting 2 13.9
2019-Oct-23 07:27 313 0 gusting 2 13.9
2019-Oct-23 07:22 312 0 gusting 2 14.4
2019-Oct-23 07:17 315 14.4
2019-Oct-23 07:12 315 0 gusting 1 14.4
2019-Oct-23 07:07 315 14.4
2019-Oct-23 07:02 340 14.4
2019-Oct-23 06:57 340 14.4
2019-Oct-23 06:52 325 14.4
2019-Oct-23 06:47 334 14.4
2019-Oct-23 06:42 335 14.4
2019-Oct-23 06:37 334 15.0
2019-Oct-23 06:32 329 0 gusting 2 15.0
2019-Oct-23 06:27 324 1 gusting 4 15.0
2019-Oct-23 06:22 316 1 gusting 6 15.0
2019-Oct-23 06:17 327 2 gusting 8 15.0
2019-Oct-23 06:12 312 2 gusting 7 15.0
2019-Oct-23 06:07 297 4 gusting 10 15.0
2019-Oct-23 06:02 309 2 gusting 8 15.0
2019-Oct-23 05:57 322 2 gusting 6 15.6
2019-Oct-23 05:52 304 1 gusting 6 15.6
2019-Oct-23 05:47 306 1 gusting 4 15.6
2019-Oct-23 05:42 311 15.6
2019-Oct-23 05:37 287 2 gusting 6 15.6
2019-Oct-23 05:32 300 2 gusting 8 16.1
2019-Oct-23 05:27 297 2 gusting 7 16.1
2019-Oct-23 05:22 246 2 gusting 7 16.7
2019-Oct-23 05:17 234 4 gusting 11 17.2
2019-Oct-23 05:12 242 4 gusting 8 17.2
2019-Oct-23 05:07 198 3 gusting 6 17.2
2019-Oct-23 05:02 159 1 gusting 8 17.2
2019-Oct-23 04:57 219 2 gusting 6 17.2
2019-Oct-23 04:52 191 2 gusting 5 17.2
2019-Oct-23 04:47 171 2 gusting 6 17.2
2019-Oct-23 04:42 171 0 gusting 5 17.2
2019-Oct-23 04:37 149 2 gusting 7 17.2
2019-Oct-23 04:32 163 4 gusting 10 17.2
2019-Oct-23 04:27 172 4 gusting 10 17.2
2019-Oct-23 04:22 157 4 gusting 8 17.2
2019-Oct-23 04:17 149 4 gusting 10 17.2
2019-Oct-23 04:12 178 4 gusting 7 17.2
2019-Oct-23 04:07 152 2 gusting 10 17.2
2019-Oct-23 04:02 162 5 gusting 10 17.2
2019-Oct-23 03:57 147 5 gusting 10 17.2
2019-Oct-23 03:52 146 6 gusting 11 17.2
2019-Oct-23 03:48 158 5 gusting 10 17.2
2019-Oct-23 03:44 149 5 gusting 10 16.7
2019-Oct-23 03:39 145 7 gusting 13 16.7
2019-Oct-23 03:32 128 4 gusting 10 16.7
2019-Oct-23 03:27 136 4 gusting 8 16.7
2019-Oct-23 03:22 130 2 gusting 7 16.1
2019-Oct-23 03:17 122 4 gusting 8 16.1
2019-Oct-23 03:12 138 3 gusting 7 16.1
2019-Oct-23 03:07 109 1 gusting 7 16.1
2019-Oct-23 03:02 083 4 gusting 7 15.6
2019-Oct-23 02:57 101 2 gusting 7 15.6
2019-Oct-23 02:52 094 2 gusting 7 15.6
2019-Oct-23 02:47 130 2 gusting 6 15.6
2019-Oct-23 02:42 155 2 gusting 10 15.6
2019-Oct-23 02:37 128 3 gusting 8 15.6
2019-Oct-23 02:32 094 3 gusting 8 15.6
2019-Oct-23 02:27 127 2 gusting 6 15.6
2019-Oct-23 02:22 110 2 gusting 8 15.6
2019-Oct-23 02:17 078 1 gusting 6 15.0
2019-Oct-23 02:12 136 1 gusting 5 15.0
2019-Oct-23 02:07 097 1 gusting 5 15.0
2019-Oct-23 02:02 110 4 gusting 11 15.0
2019-Oct-23 01:57 115 2 gusting 7 15.0
2019-Oct-23 01:52 100 1 gusting 10 15.0
2019-Oct-23 01:47 090 2 gusting 8 15.0
2019-Oct-23 01:42 093 5 gusting 8 15.0
2019-Oct-23 01:37 082 4 gusting 11 15.0
2019-Oct-23 01:32 103 1 gusting 8 15.0
2019-Oct-23 01:27 095 4 gusting 8 15.0
2019-Oct-23 01:22 146 1 gusting 6 15.0
2019-Oct-23 01:17 086 3 gusting 11 15.0
2019-Oct-23 01:12 117 4 gusting 10 15.0
2019-Oct-23 01:07 098 3 gusting 10 15.0
2019-Oct-23 01:02 112 2 gusting 7 15.0
2019-Oct-23 00:57 092 3 gusting 8 15.0
2019-Oct-23 00:52 110 3 gusting 8 15.0
2019-Oct-23 00:47 148 2 gusting 10 15.0
2019-Oct-23 00:42 097 3 gusting 11 14.4
2019-Oct-23 00:37 099 2 gusting 7 14.4
2019-Oct-23 00:32 106 2 gusting 10 14.4
2019-Oct-23 00:27 097 4 gusting 10 14.4
2019-Oct-23 00:22 084 2 gusting 10 14.4
2019-Oct-23 00:17 101 0 gusting 8 14.4
2019-Oct-23 00:12 095 2 gusting 6 14.4
2019-Oct-23 00:07 081 2 gusting 8 14.4
2019-Oct-23 00:02 075 1 gusting 8 14.4
2019-Oct-22 23:57 086 5 gusting 10 14.4
2019-Oct-22 23:52 100 4 gusting 6 15.0
2019-Oct-22 23:47 096 0 gusting 2 15.0
2019-Oct-22 23:42 105 0 gusting 2 15.0
2019-Oct-22 23:37 094 0 gusting 2 15.0
2019-Oct-22 23:32 087 1 gusting 7 14.4
2019-Oct-22 23:27 100 1 gusting 8 14.4
2019-Oct-22 23:22 101 1 gusting 6 14.4
2019-Oct-22 23:17 085 1 gusting 6 14.4
2019-Oct-22 23:12 092 2 gusting 6 14.4
2019-Oct-22 23:07 091 3 gusting 6 14.4
2019-Oct-22 23:02 093 2 gusting 8 14.4
2019-Oct-22 22:57 096 2 gusting 7 14.4
2019-Oct-22 22:52 118 1 gusting 6 14.4
2019-Oct-22 22:47 112 2 gusting 6 14.4
2019-Oct-22 22:42 096 1 gusting 8 14.4
2019-Oct-22 22:37 067 1 gusting 5 14.4
2019-Oct-22 22:32 133 2 gusting 10 14.4
2019-Oct-22 22:27 124 2 gusting 6 14.4
2019-Oct-22 22:22 103 1 gusting 6 14.4
2019-Oct-22 22:17 122 2 gusting 8 14.4
2019-Oct-22 22:12 081 2 gusting 8 15.0
2019-Oct-22 22:07 070 2 gusting 6 15.0
2019-Oct-22 22:02 102 2 gusting 10 15.0
2019-Oct-22 21:57 092 2 gusting 8 15.0
2019-Oct-22 21:52 098 3 gusting 7 15.0
2019-Oct-22 21:47 108 3 gusting 7 15.0
2019-Oct-22 21:42 109 1 gusting 6 15.0
2019-Oct-22 21:37 112 1 gusting 7 15.0
2019-Oct-22 21:32 126 2 gusting 10 15.0
2019-Oct-22 21:27 143 3 gusting 8 15.0
2019-Oct-22 21:22 095 0 gusting 6 15.0
2019-Oct-22 21:17 126 4 gusting 13 15.0
2019-Oct-22 21:12 099 3 gusting 10 15.0
2019-Oct-22 21:07 103 3 gusting 10 15.0
2019-Oct-22 21:02 115 4 gusting 11 15.0
2019-Oct-22 20:57 124 3 gusting 7 15.0
2019-Oct-22 20:52 115 2 gusting 8 15.0
2019-Oct-22 20:47 135 1 gusting 6 15.0
2019-Oct-22 20:42 116 2 gusting 6 15.0
2019-Oct-22 20:37 117 2 gusting 6 15.0
2019-Oct-22 20:32 095 0 gusting 7 15.0
2019-Oct-22 20:27 138 1 gusting 7 15.0
2019-Oct-22 20:22 111 2 gusting 8 15.0
2019-Oct-22 20:17 131 4 gusting 10 15.0
2019-Oct-22 20:12 122 3 gusting 8 15.0
2019-Oct-22 20:07 142 1 gusting 12 15.0
2019-Oct-22 20:02 124 0 gusting 6 15.0
2019-Oct-22 19:57 115 1 gusting 7 15.0
2019-Oct-22 19:52 120 0 gusting 7 15.0
2019-Oct-22 19:47 122 1 gusting 6 15.0
2019-Oct-22 19:42 100 2 gusting 8 15.0
2019-Oct-22 19:37 108 2 gusting 6 15.0
2019-Oct-22 19:32 093 3 gusting 8 15.0
2019-Oct-22 19:27 087 2 gusting 7 15.0
2019-Oct-22 19:22 091 2 gusting 6 15.0
2019-Oct-22 19:17 117 3 gusting 6 15.0
2019-Oct-22 19:12 069 1 gusting 6 14.4
2019-Oct-22 19:07 097 2 gusting 6 14.4
2019-Oct-22 19:02 104 2 gusting 8 14.4
2019-Oct-22 18:57 114 1 gusting 8 14.4
2019-Oct-22 18:52 098 4 gusting 10 14.4
2019-Oct-22 18:47 095 4 gusting 10 14.4
2019-Oct-22 18:42 084 1 gusting 10 14.4
2019-Oct-22 18:37 087 4 gusting 8 14.4
2019-Oct-22 18:32 084 3 gusting 8 14.4
2019-Oct-22 18:27 086 1 gusting 6 13.9
2019-Oct-22 18:22 105 2 gusting 6 13.9
2019-Oct-22 18:17 089 3 gusting 6 13.9
2019-Oct-22 18:12 097 5 gusting 8 13.9
2019-Oct-22 18:07 084 4 gusting 10 13.9
2019-Oct-22 18:02 091 2 gusting 7 13.9
2019-Oct-22 17:57 110 3 gusting 7 13.9
2019-Oct-22 17:52 089 2 gusting 5 13.9
2019-Oct-22 17:47 092 2 gusting 6 13.9
2019-Oct-22 17:42 059 2 gusting 6 13.9
2019-Oct-22 17:37 096 2 gusting 7 13.9
2019-Oct-22 17:32 081 2 gusting 6 13.9
2019-Oct-22 17:27 090 1 gusting 6 13.9
2019-Oct-22 17:22 096 1 gusting 5 13.9
2019-Oct-22 17:17 098 2 gusting 6 13.9
2019-Oct-22 17:12 088 1 gusting 6 13.9
2019-Oct-22 17:07 095 3 gusting 10 13.9
2019-Oct-22 17:02 076 4 gusting 8 13.9
2019-Oct-22 16:57 097 0 gusting 2 13.9
2019-Oct-22 16:52 104 3 gusting 8 13.9
2019-Oct-22 16:47 092 1 gusting 6 13.9
2019-Oct-22 16:42 081 2 gusting 8 13.3
2019-Oct-22 16:37 110 0 gusting 5 13.9
2019-Oct-22 16:32 101 1 gusting 6 13.9
2019-Oct-22 16:27 093 0 gusting 6 13.3
2019-Oct-22 16:22 092 0 gusting 10 13.3
2019-Oct-22 16:17 101 2 gusting 5 13.3
2019-Oct-22 16:12 087 2 gusting 6 13.3
2019-Oct-22 16:07 093 2 gusting 5 13.3
2019-Oct-22 16:02 082 0 gusting 2 13.3
2019-Oct-22 15:57 084 0 gusting 6 13.3
2019-Oct-22 15:52 080 1 gusting 7 13.3
2019-Oct-22 15:47 103 1 gusting 6 13.3
2019-Oct-22 15:42 067 1 gusting 6 13.3
2019-Oct-22 15:37 067 1 gusting 5 13.3
2019-Oct-22 15:32 063 1 gusting 6 13.3
2019-Oct-22 15:27 090 1 gusting 5 13.3
2019-Oct-22 15:22 084 1 gusting 6 13.3
2019-Oct-22 15:17 070 0 gusting 2 12.8
2019-Oct-22 15:12 057 0 gusting 1 12.8
2019-Oct-22 15:07 056 12.8
2019-Oct-22 15:02 056 12.8
2019-Oct-22 14:57 056 1 gusting 4 12.8
2019-Oct-22 14:52 079 1 gusting 2 12.8
2019-Oct-22 14:47 077 0 gusting 2 12.2
2019-Oct-22 14:42 055 0 gusting 2 12.2
2019-Oct-22 14:37 059 2 gusting 4 12.8
2019-Oct-22 14:32 086 2 gusting 5 12.8
2019-Oct-22 14:27 066 1 gusting 2 12.8
2019-Oct-22 14:22 055 1 gusting 5 12.8
2019-Oct-22 14:17 076 0 gusting 2 12.8
2019-Oct-22 14:12 082 0 gusting 2 12.8
2019-Oct-22 14:07 078 12.8
2019-Oct-22 14:02 051 0 gusting 2 12.8
2019-Oct-22 13:57 099 12.8
2019-Oct-22 13:52 099 12.8
2019-Oct-22 13:47 038 0 gusting 2 12.8
2019-Oct-22 13:42 042 0 gusting 2 12.8
2019-Oct-22 13:37 046 1 gusting 2 12.8
2019-Oct-22 13:32 096 0 gusting 2 12.8
2019-Oct-22 13:27 057 0 gusting 1 12.8
2019-Oct-22 13:22 059 0 gusting 2 12.8
2019-Oct-22 13:17 060 0 gusting 1 12.8
2019-Oct-22 13:12 060 12.8
2019-Oct-22 13:07 061 12.8
2019-Oct-22 13:02 060 12.8
2019-Oct-22 12:57 060 12.8
2019-Oct-22 12:52 061 12.8
2019-Oct-22 12:47 060 12.8
2019-Oct-22 12:42 062 0 gusting 2 12.8
2019-Oct-22 12:37 065 12.8
2019-Oct-22 12:32 068 0 gusting 2 12.2
2019-Oct-22 12:27 087 1 gusting 5 12.2
2019-Oct-22 12:22 094 1 gusting 2 12.2
2019-Oct-22 12:17 101 12.2
2019-Oct-22 12:12 119 2 gusting 6 12.2
2019-Oct-22 12:07 091 2 gusting 7 11.7
2019-Oct-22 12:02 086 1 gusting 2 11.7
2019-Oct-22 11:57 057 2 gusting 6 11.7
2019-Oct-22 11:52 083 0 gusting 2 11.7
2019-Oct-22 11:47 052 1 gusting 5 11.7
2019-Oct-22 11:42 093 0 gusting 2 11.7
2019-Oct-22 11:37 067 0 gusting 2 11.7
2019-Oct-22 11:32 067 0 gusting 2 11.7
2019-Oct-22 11:27 068 11.7
2019-Oct-22 11:22 068 11.7
2019-Oct-22 11:17 068 11.7
2019-Oct-22 11:12 068 11.7
2019-Oct-22 11:07 068 11.7
2019-Oct-22 11:02 068 11.7
2019-Oct-22 10:57 069 11.7
2019-Oct-22 10:52 069 11.7
2019-Oct-22 10:47 068 11.7
2019-Oct-22 10:42 068 11.7
2019-Oct-22 10:37 069 11.7
2019-Oct-22 10:32 069 11.7
2019-Oct-22 10:27 069 11.7
2019-Oct-22 10:22 069 11.7
2019-Oct-22 10:17 069 0 gusting 2 11.7
2019-Oct-22 10:12 059 0 gusting 2 11.7
2019-Oct-22 10:07 057 11.7
2019-Oct-22 10:02 060 0 gusting 1 11.7
2019-Oct-22 09:57 060 11.7
2019-Oct-22 09:52 061 11.7
2019-Oct-22 09:47 061 0 gusting 5 11.7
2019-Oct-22 09:42 072 0 gusting 4 11.1
2019-Oct-22 09:37 042 0 gusting 2 11.1
2019-Oct-22 09:32 039 11.1
2019-Oct-22 09:27 028 11.1
2019-Oct-22 09:22 028 0 gusting 2 11.1
2019-Oct-22 09:17 044 11.1
2019-Oct-22 09:12 060 0 gusting 2 11.1
2019-Oct-22 09:07 062 0 gusting 2 11.1
2019-Oct-22 09:02 066 0 gusting 2 11.1
2019-Oct-22 08:57 083 11.1
2019-Oct-22 08:52 084 11.1
2019-Oct-22 08:47 083 11.1
2019-Oct-22 08:42 083 11.1
2019-Oct-22 08:37 084 11.1
2019-Oct-22 08:32 084 11.1
2019-Oct-22 08:27 084 11.1
2019-Oct-22 08:22 084 11.1
2019-Oct-22 08:17 084 11.1
2019-Oct-22 08:12 084 11.1
2019-Oct-22 08:07 084 11.1
2019-Oct-22 08:02 084 11.1
2019-Oct-22 07:57 083 11.1
2019-Oct-22 07:52 084 11.7
2019-Oct-22 07:47 084 11.1
2019-Oct-22 07:42 084 11.7
2019-Oct-22 07:37 084 11.7
2019-Oct-22 07:32 084 11.7
2019-Oct-22 07:27 084 0 gusting 2 11.7
2019-Oct-22 07:22 100 11.7
2019-Oct-22 07:17 100 0 gusting 2 11.1
2019-Oct-22 07:12 113 11.1
2019-Oct-22 07:07 120 0 gusting 2 11.1
2019-Oct-22 07:02 146 10.6
2019-Oct-22 06:57 146 10.6
2019-Oct-22 06:52 146 10.6
2019-Oct-22 06:47 146 10.6
2019-Oct-22 06:42 146 10.6
2019-Oct-22 06:37 146 10.6
2019-Oct-22 06:32 146 10.6
2019-Oct-22 06:27 146 10.6
2019-Oct-22 06:22 146 10.0
2019-Oct-22 06:17 146 10.0
2019-Oct-22 06:12 146 10.0
2019-Oct-22 06:07 146 10.0
2019-Oct-22 06:02 146 10.6
2019-Oct-22 05:57 146 10.6
2019-Oct-22 05:52 146 10.6
2019-Oct-22 05:47 146 0 gusting 1 10.6
2019-Oct-22 05:42 147 10.6
2019-Oct-22 05:37 146 10.6
2019-Oct-22 05:32 146 0 gusting 2 10.6
2019-Oct-22 05:27 149 10.0
2019-Oct-22 05:22 149 10.0
2019-Oct-22 05:17 148 10.0
2019-Oct-22 05:12 149 10.0
2019-Oct-22 05:07 149 10.0
2019-Oct-22 05:02 148 10.0
2019-Oct-22 04:57 149 10.0
2019-Oct-22 04:52 148 10.6
2019-Oct-22 04:47 149 10.6
2019-Oct-22 04:42 148 10.6
2019-Oct-22 04:37 149 0 gusting 1 10.6
2019-Oct-22 04:32 149 10.6
2019-Oct-22 04:27 149 10.6
2019-Oct-22 04:22 149 10.6
2019-Oct-22 04:17 149 10.6
2019-Oct-22 04:12 149 11.1
2019-Oct-22 04:07 149 11.1
2019-Oct-22 04:02 149 11.1
2019-Oct-22 03:57 149 10.6
2019-Oct-22 03:52 150 10.6
2019-Oct-22 03:47 150 11.1
2019-Oct-22 03:42 150 11.1
2019-Oct-22 03:37 150 11.1
2019-Oct-22 03:32 150 11.1
2019-Oct-22 03:27 150 11.1
2019-Oct-22 03:22 150 11.1
2019-Oct-22 03:17 150 11.1
2019-Oct-22 03:12 150 11.1
2019-Oct-22 03:07 150 11.1
2019-Oct-22 03:02 150 11.1
2019-Oct-22 02:57 150 11.1
2019-Oct-22 02:52 150 11.1
2019-Oct-22 02:47 150 11.1
2019-Oct-22 02:42 150 11.1
2019-Oct-22 02:37 150 11.1
2019-Oct-22 02:32 150 11.1
2019-Oct-22 02:27 150 11.7
2019-Oct-22 02:22 150 11.7
2019-Oct-22 02:17 150 11.7
2019-Oct-22 02:12 150 11.7
2019-Oct-22 02:07 150 11.7
2019-Oct-22 02:02 150 11.7
2019-Oct-22 01:57 150 11.7
2019-Oct-22 01:52 150 11.7
2019-Oct-22 01:47 150 12.2
2019-Oct-22 01:42 150 12.2
2019-Oct-22 01:37 150 12.2
2019-Oct-22 01:32 150 12.2
2019-Oct-22 01:27 150 12.2
2019-Oct-22 01:22 150 12.2
2019-Oct-22 01:17 150 12.2
2019-Oct-22 01:12 148 12.2
2019-Oct-22 01:07 148 12.2
2019-Oct-22 01:02 144 12.2
2019-Oct-22 00:57 143 12.2
2019-Oct-22 00:52 144 12.2
2019-Oct-22 00:47 144 12.2
2019-Oct-22 00:42 144 12.2
2019-Oct-22 00:37 144 12.2
2019-Oct-22 00:32 144 12.2
2019-Oct-22 00:27 144 12.8
2019-Oct-22 00:22 144 12.8
2019-Oct-22 00:17 144 12.8
2019-Oct-22 00:12 144 12.8
2019-Oct-22 00:07 144 13.3
2019-Oct-22 00:02 144 13.3
2019-Oct-21 23:57 144 13.3
2019-Oct-21 23:52 143 13.3
2019-Oct-21 23:47 144 13.3
2019-Oct-21 23:42 144 13.9
2019-Oct-21 23:37 144 13.9
2019-Oct-21 23:32 144 14.4
2019-Oct-21 23:27 143 0 gusting 2 14.4
2019-Oct-21 23:22 143 0 gusting 5 15.0
2019-Oct-21 23:17 071 0 gusting 1 14.4
2019-Oct-21 23:12 071 0 gusting 2 15.0
2019-Oct-21 23:07 071 14.4
2019-Oct-21 23:02 071 15.0
2019-Oct-21 22:57 071 15.0
2019-Oct-21 22:52 071 15.0
2019-Oct-21 22:47 071 0 gusting 2 15.0
2019-Oct-21 22:42 071 15.0
2019-Oct-21 22:37 070 0 gusting 2 15.0
2019-Oct-21 22:32 069 15.0
2019-Oct-21 22:27 069 15.0
2019-Oct-21 22:22 069 15.6
2019-Oct-21 22:17 068 16.1
2019-Oct-21 22:12 069 16.7
2019-Oct-21 22:07 068 0 gusting 2 16.7
2019-Oct-21 22:02 068 0 gusting 2 17.2
2019-Oct-21 21:57 066 0 gusting 2 17.2
2019-Oct-21 21:52 072 0 gusting 2 17.2
2019-Oct-21 21:47 094 2 gusting 5 17.2
2019-Oct-21 21:42 093 2 gusting 6 17.2
2019-Oct-21 21:37 087 1 gusting 4 17.8
2019-Oct-21 21:32 085 0 gusting 2 17.8
2019-Oct-21 21:27 083 0 gusting 6 17.8
2019-Oct-21 21:22 087 2 gusting 6 17.8
2019-Oct-21 21:17 092 1 gusting 2 17.8
2019-Oct-21 21:12 092 0 gusting 2 18.3
2019-Oct-21 21:07 105 1 gusting 5 18.3
2019-Oct-21 21:02 130 1 gusting 6 18.3
2019-Oct-21 20:57 080 1 gusting 2 18.3
2019-Oct-21 20:52 105 1 gusting 6 18.3
2019-Oct-21 20:47 099 2 gusting 6 18.9
2019-Oct-21 20:42 128 1 gusting 6 18.9
2019-Oct-21 20:37 130 0 gusting 6 18.9
2019-Oct-21 20:32 078 0 gusting 4 18.9
2019-Oct-21 20:27 121 1 gusting 7 18.9
2019-Oct-21 20:22 18.9
2019-Oct-21 20:17 132 0 gusting 6 18.9
2019-Oct-21 20:12 169 0 gusting 2 18.9
2019-Oct-21 20:07 159 0 gusting 4 18.9
2019-Oct-21 20:02 282 0 gusting 2 18.9
2019-Oct-21 19:57 323 18.9
2019-Oct-21 19:52 323 18.3
2019-Oct-21 19:47 323 18.3
2019-Oct-21 19:42 322 0 gusting 2 18.9
2019-Oct-21 19:37 319 18.9
2019-Oct-21 19:32 350 0 gusting 4 18.9
2019-Oct-21 19:27 059 2 gusting 5 18.9
2019-Oct-21 19:22 289 0 gusting 2 18.9
2019-Oct-21 19:17 289 0 gusting 2 18.9
2019-Oct-21 19:12 287 1 gusting 2 18.9
2019-Oct-21 19:07 098 18.9
2019-Oct-21 19:02 098 0 gusting 2 18.9
2019-Oct-21 18:57 100 1 gusting 6 18.9
2019-Oct-21 18:52 093 0 gusting 6 18.9
2019-Oct-21 18:47 033 0 gusting 6 18.9
2019-Oct-21 18:42 062 0 gusting 2 18.9
2019-Oct-21 18:37 053 1 gusting 4 18.9
2019-Oct-21 18:32 002 2 gusting 5 19.4
2019-Oct-21 18:27 086 0 gusting 2 18.9
2019-Oct-21 18:22 041 18.9
2019-Oct-21 18:17 054 2 gusting 6 18.9
2019-Oct-21 18:12 041 1 gusting 2 18.9
2019-Oct-21 18:07 040 2 gusting 6 18.9
2019-Oct-21 18:02 323 1 gusting 8 18.9
2019-Oct-21 17:57 332 0 gusting 2 18.9
2019-Oct-21 17:52 343 0 gusting 4 18.9
2019-Oct-21 17:47 319 1 gusting 6 18.9
2019-Oct-21 17:17 333 1 gusting 4 18.3
2019-Oct-21 17:12 353 0 gusting 6 18.3
2019-Oct-21 17:07 066 0 gusting 6 18.3
2019-Oct-21 17:02 331 2 gusting 7 18.3
2019-Oct-21 16:57 014 2 gusting 8 17.8
2019-Oct-21 16:52 015 2 gusting 6 18.3
2019-Oct-21 16:47 331 2 gusting 6 17.8
2019-Oct-21 16:42 018 1 gusting 5 17.8
2019-Oct-21 16:37 045 2 gusting 6 17.8
2019-Oct-21 16:32 024 0 gusting 7 17.8
2019-Oct-21 16:27 335 1 gusting 8 17.8
2019-Oct-21 16:22 343 0 gusting 6 17.8
2019-Oct-21 16:17 347 2 gusting 6 17.8
2019-Oct-21 16:12 027 1 gusting 7 17.2
2019-Oct-21 16:07 036 2 gusting 7 17.2
2019-Oct-21 16:02 047 3 gusting 8 17.2
2019-Oct-21 15:57 037 3 gusting 10 16.7
2019-Oct-21 15:52 031 2 gusting 11 16.7
2019-Oct-21 15:47 302 1 gusting 6 16.7
2019-Oct-21 15:42 036 1 gusting 5 16.7
2019-Oct-21 15:37 032 2 gusting 6 16.7
2019-Oct-21 15:32 060 3 gusting 6 16.7
2019-Oct-21 15:27 033 1 gusting 4 16.7
2019-Oct-21 15:22 039 1 gusting 5 16.1
2019-Oct-21 15:17 022 2 gusting 8 16.1
2019-Oct-21 15:12 045 1 gusting 6 16.1
2019-Oct-21 15:07 040 0 gusting 2 15.6
2019-Oct-21 15:02 356 1 gusting 6 15.6